Latest Weather Observations for Cobar Airport

IDN60801

Issued at 10:03 am EST Monday 26 June 2017 (issued every 30 minutes, with the page automatically refreshed every 10 minutes)

About weather observations | Map of weather stations | Latest weather observations for NSW | Other Formats
Station Details ID: 048237 Name: COBAR AIRPORT AWS Lat: -31.54 Lon: 145.80 Height: 218.0 m
Data from the previous 72 hours. | See also: Recent months at Cobar Airport
Date/Time
EST
Temp
°C
App
Temp
°C
Dew
Point
°C
Rel
Hum
%
Delta-T
°C
Wind Press
QNH
hPa
Press
MSL
hPa
Rain since
9am
mm
Dir  Spd
km/h
Gust
km/h
Spd
kts
Gust
kts
26/10:00am 12.1 9.0 5.7 65 3.0 SSW 11 15 6 8 1024.5 1024.6 0.0
26/09:30am 12.0 9.4 6.1 67 2.8 SSE 9 13 5 7 1024.2 1024.4 0.0
26/09:00am 9.0 8.3 6.8 86 1.0 CALM 0 0 0 0 1023.9 1024.1 0.0
26/08:30am 6.2 5.1 5.0 92 0.5 CALM 0 0 0 0 1023.4 1023.6 0.0
26/08:00am 4.6 2.2 4.3 98 0.1 SE 6 9 3 5 1023.1 1023.3 0.0
26/07:30am 2.1 0.3 1.4 95 0.3 CALM 0 0 0 0 1022.9 1023.1 0.0
26/07:00am 2.0 -0.6 1.1 94 0.3 E 4 6 2 3 1022.5 1022.7 0.0
26/06:30am 2.5 0.3 1.3 92 0.5 SE 2 7 1 4 1022.2 1022.4 0.0
26/06:00am 3.2 0.4 1.9 91 0.5 SSE 6 7 3 4 1021.8 1022.0 0.0
26/05:30am 4.5 1.4 3.6 94 0.4 SSE 9 13 5 7 1021.4 1021.6 0.0
26/05:00am 6.2 3.2 5.8 97 0.2 SSE 11 19 6 10 1021.2 1021.3 0.0
26/04:30am 2.5 -1.3 1.8 95 0.3 SSE 11 15 6 8 1020.9 1021.0 0.0
26/04:00am 1.9 -1.3 0.6 91 0.5 SSW 7 11 4 6 1021.0 1021.1 0.0
26/03:30am 2.5 -0.5 1.0 90 0.6 S 6 6 3 3 1020.9 1021.0 0.0
26/03:00am 3.0 0.9 1.5 90 0.6 S 2 6 1 3 1020.6 1020.7 0.0
26/02:30am 3.5 0.7 2.0 90 0.6 S 6 7 3 4 1020.6 1020.7 0.0
26/02:00am 3.7 2.0 1.7 87 0.8 CALM 0 0 0 0 1020.5 1020.6 0.0
26/01:30am 3.9 2.1 1.4 84 1.0 CALM 0 0 0 0 1020.4 1020.5 0.0
26/01:00am 3.6 1.7 0.5 80 1.2 CALM 0 0 0 0 1020.3 1020.4 0.0
26/12:30am 4.7 2.3 2.4 85 0.9 S 4 6 2 3 1020.3 1020.4 0.0
26/12:00am 5.1 3.5 2.5 83 1.1 CALM 0 0 0 0 1020.4 1020.5 0.0
 
Date/Time
EST
Temp
°C
App
Temp
°C
Dew
Point
°C
Rel
Hum
%
Delta-T
°C
Wind Press
QNH
hPa
Press
MSL
hPa
Rain since
9am
mm
Dir  Spd
km/h
Gust
km/h
Spd
kts
Gust
kts
25/11:30pm 4.7 2.9 1.0 77 1.5 CALM 0 0 0 0 1020.6 1020.7 0.0
25/11:28pm 4.8 3.0 1.1 77 1.5 CALM 0 0 0 0 1020.5 1020.6 0.0
25/11:04pm 5.5 3.7 1.2 74 1.7 CALM 0 0 0 0 1020.4 1020.5 0.0
25/11:00pm 5.4 3.6 1.0 73 1.7 CALM 0 0 0 0 1020.5 1020.6 0.0
25/10:30pm 6.8 5.2 2.7 75 1.7 CALM 0 0 0 0 1020.3 1020.4 0.0
25/10:00pm 6.9 5.2 1.8 70 2.1 CALM 0 0 0 0 1020.2 1020.3 0.0
25/09:30pm 7.9 6.4 3.2 72 2.0 CALM 0 0 0 0 1019.9 1020.0 0.0
25/09:00pm 9.0 7.6 3.6 69 2.4 CALM 0 0 0 0 1020.0 1020.1 0.0
25/08:30pm 9.7 8.3 3.7 66 2.7 CALM 0 0 0 0 1019.6 1019.7 0.0
25/08:00pm 10.2 8.8 3.3 62 3.0 CALM 0 0 0 0 1019.2 1019.4 0.0
25/07:30pm 10.9 8.2 2.7 57 3.6 S 6 7 3 4 1018.8 1019.0 0.0
25/07:00pm 12.7 11.4 4.2 56 3.9 CALM 0 0 0 0 1018.3 1018.5 0.0
25/06:30pm 14.0 11.4 4.0 51 4.6 SSW 7 9 4 5 1018.2 1018.4 0.0
25/06:00pm 16.3 14.2 3.7 43 5.9 WSW 4 6 2 3 1017.7 1017.9 0.0
25/05:30pm 18.5 15.8 3.9 38 7.0 SW 7 9 4 5 1017.4 1017.6 0.0
25/05:00pm 19.9 16.5 4.0 35 7.7 SW 11 15 6 8 1017.2 1017.3 0.0
25/04:30pm 21.0 16.5 4.1 33 8.2 W 17 24 9 13 1017.1 1017.2 0.0
25/04:00pm 20.8 16.9 3.5 32 8.3 WSW 13 22 7 12 1016.9 1017.0 0.0
25/03:30pm 20.4 15.3 4.0 34 8.0 W 20 30 11 16 1017.0 1017.1 0.0
25/03:00pm 21.6 17.6 4.7 33 8.4 NW 15 24 8 13 1017.0 1017.1 0.0
25/02:30pm 21.3 17.0 5.2 35 8.0 W 17 22 9 12 1017.2 1017.3 0.0
25/02:00pm 20.8 16.3 4.4 34 8.0 WNW 17 24 9 13 1017.2 1017.3 0.0
25/01:30pm 20.2 15.4 4.7 36 7.6 NNW 19 26 10 14 1017.3 1017.4 0.0
25/01:00pm 20.3 15.9 4.8 36 7.6 NW 17 22 9 12 1017.8 1018.0 0.0
25/12:30pm 19.7 17.1 6.1 41 6.8 NNE 9 17 5 9 1018.3 1018.5 0.0
25/12:00pm 19.2 16.3 6.3 43 6.5 N 11 20 6 11 1019.0 1019.2 0.0
25/11:30am 17.7 14.7 5.9 46 5.8 NE 11 19 6 10 1019.4 1019.6 0.0
25/11:00am 16.9 13.5 6.1 49 5.3 NE 13 17 7 9 1019.9 1020.0 0.0
25/10:30am 15.7 12.3 5.9 52 4.8 NE 13 20 7 11 1020.1 1020.2 0.0
25/10:00am 14.8 11.4 5.9 55 4.3 NNE 13 19 7 10 1020.3 1020.4 0.0
25/09:30am 14.0 10.2 5.9 58 3.9 NNE 15 20 8 11 1020.3 1020.4 0.0
25/09:00am 12.9 9.4 5.6 61 3.4 NE 13 19 7 10 1020.1 1020.2 0.0
25/08:30am 11.3 7.8 5.4 67 2.7 NE 13 17 7 9 1019.9 1020.0 0.0
25/08:00am 9.5 6.3 4.9 73 2.1 NE 11 15 6 8 1019.4 1019.6 0.0
25/07:30am 9.2 6.4 5.0 75 1.9 ENE 9 13 5 7 1019.2 1019.4 0.0
25/07:00am 9.2 6.4 5.0 75 1.9 ENE 9 13 5 7 1018.9 1019.1 0.0
25/06:30am 9.6 5.9 4.6 71 2.3 ENE 13 17 7 9 1018.5 1018.7 0.0
25/06:00am 9.4 6.1 4.6 72 2.2 NE 11 13 6 7 1018.3 1018.5 0.0
25/05:30am 9.5 6.3 5.1 74 2.0 NE 11 13 6 7 1018.3 1018.5 0.0
25/05:00am 10.6 7.5 5.6 71 2.3 ENE 11 15 6 8 1018.3 1018.5 0.0
25/04:30am 9.3 7.9 5.5 77 1.7 ENE 2 11 1 6 1018.4 1018.6 0.0
25/04:00am 9.7 7.3 5.1 73 2.1 E 7 9 4 5 1018.5 1018.7 0.0
25/03:30am 9.9 6.8 5.5 74 2.0 NE 11 13 6 7 1018.5 1018.7 0.0
25/03:00am 9.6 6.9 5.8 77 1.8 NE 9 13 5 7 1018.8 1019.0 0.0
25/02:30am 9.9 8.7 6.4 79 1.6 SSW 2 7 1 4 1018.9 1019.1 0.0
25/02:00am 10.4 8.4 6.4 76 1.9 NNE 6 6 3 3 1019.0 1019.2 0.0
25/01:30am 10.5 8.8 5.9 73 2.2 NNE 4 6 2 3 1018.8 1019.0 0.0
25/01:00am 11.2 9.0 5.5 68 2.7 E 6 9 3 5 1018.9 1019.1 0.0
25/12:30am 11.3 8.6 5.6 68 2.7 ESE 9 11 5 6 1019.2 1019.4 0.0
25/12:00am 10.5 9.1 5.7 72 2.2 SE 2 9 1 5 1019.3 1019.5 0.0
 
Date/Time
EST
Temp
°C
App
Temp
°C
Dew
Point
°C
Rel
Hum
%
Delta-T
°C
Wind Press
QNH
hPa
Press
MSL
hPa
Rain since
9am
mm
Dir  Spd
km/h
Gust
km/h
Spd
kts
Gust
kts
24/11:30pm 10.2 9.3 6.0 75 2.0 CALM 0 0 0 0 1019.4 1019.6 0.0
24/11:00pm 10.3 9.3 5.7 73 2.1 CALM 0 0 0 0 1019.4 1019.6 0.0
24/10:30pm 10.1 9.2 5.9 75 2.0 CALM 0 0 0 0 1019.4 1019.6 0.0
24/10:00pm 9.9 8.9 5.7 75 1.9 CALM 0 0 0 0 1019.6 1019.7 0.0
24/09:30pm 10.1 8.3 5.5 73 2.1 NE 4 7 2 4 1019.3 1019.5 0.0
24/09:00pm 10.3 9.3 5.7 73 2.1 CALM 0 0 0 0 1019.4 1019.6 0.0
24/08:30pm 10.5 9.6 5.9 73 2.2 CALM 0 0 0 0 1019.3 1019.5 0.0
24/08:00pm 10.4 9.4 5.8 73 2.1 CALM 0 0 0 0 1019.3 1019.5 0.0
24/07:30pm 10.4 9.3 5.2 70 2.4 CALM 0 0 0 0 1019.2 1019.4 0.0
24/07:00pm 11.1 10.1 5.4 68 2.6 CALM 0 0 0 0 1018.9 1019.1 0.0
24/06:30pm 12.0 9.8 5.4 64 3.1 SE 6 9 3 5 1018.5 1018.7 0.0
24/06:00pm 12.3 10.2 5.9 65 3.0 SW 6 7 3 4 1018.7 1018.9 0.0
24/05:30pm 13.1 10.8 4.8 57 3.9 SW 6 7 3 4 1018.6 1018.8 0.0
24/05:00pm 13.7 11.4 4.6 54 4.2 SW 6 7 3 4 1018.6 1018.8 0.0
24/04:30pm 14.3 12.7 4.3 51 4.7 S 2 7 1 4 1018.4 1018.6 0.0
24/04:00pm 14.4 13.1 4.1 50 4.8 CALM 0 0 0 0 1018.0 1018.2 0.0
24/03:30pm 14.1 11.8 4.7 53 4.4 S 6 9 3 5 1018.3 1018.5 0.0
24/03:00pm 13.9 11.5 4.2 52 4.5 SW 6 7 3 4 1018.5 1018.7 0.0
24/02:30pm 14.2 11.5 3.7 49 4.8 SW 7 9 4 5 1018.5 1018.7 0.0
24/02:00pm 14.4 11.9 3.5 48 5.0 SW 6 7 3 4 1018.5 1018.7 0.0
24/01:30pm 14.4 11.6 3.2 47 5.1 SSW 7 9 4 5 1018.7 1018.9 0.0
24/01:00pm 14.5 11.8 3.6 48 5.0 SW 7 11 4 6 1018.9 1019.1 0.0
24/12:30pm 14.4 11.6 3.2 47 5.1 WSW 7 9 4 5 1019.2 1019.4 0.0
24/12:00pm 14.3 11.6 3.5 48 4.9 SW 7 11 4 6 1019.6 1019.7 0.0
24/11:30am 14.6 11.5 3.7 48 5.0 WSW 9 11 5 6 1020.3 1020.4 0.0
24/11:00am 15.0 11.5 3.5 46 5.3 WSW 11 15 6 8 1020.4 1020.5 0.0
24/10:30am 15.5 12.3 3.3 44 5.6 WSW 9 13 5 7 1020.2 1020.3 0.0
24/10:00am 15.3 12.2 3.5 45 5.4 WSW 9 13 5 7 1020.4 1020.5 0.0
24/09:30am 13.5 12.1 3.6 51 4.5 CALM 0 6 0 3 1020.3 1020.4 0.0
24/09:00am 12.5 11.1 3.5 54 4.0 CALM 0 0 0 0 1020.0 1020.1 0.0
24/08:30am 10.3 9.1 4.5 67 2.6 CALM 0 0 0 0 1020.1 1020.2 0.0
24/08:00am 7.9 5.2 3.8 75 1.8 NE 7 9 4 5 1019.7 1019.8 0.0
24/07:30am 4.7 3.0 1.9 82 1.1 CALM 0 4 0 2 1019.4 1019.6 0.0
24/07:00am 4.6 2.9 1.8 82 1.1 CALM 0 0 0 0 1019.0 1019.2 0.0
24/06:30am 4.6 2.1 1.5 80 1.2 N 4 7 2 4 1018.7 1018.9 0.0
24/06:00am 4.8 3.0 1.3 78 1.4 CALM 0 0 0 0 1018.5 1018.7 0.0
24/05:30am 5.2 3.0 1.0 74 1.7 N 2 6 1 3 1018.2 1018.4 0.0
24/05:00am 6.1 3.2 1.6 73 1.8 NNE 6 7 3 4 1017.8 1018.0 0.0
24/04:30am 6.8 5.1 2.1 72 1.9 CALM 0 0 0 0 1018.0 1018.2 0.0
24/04:00am 7.3 5.8 2.8 73 1.9 CALM 0 6 0 3 1017.7 1017.9 0.0
24/03:30am 7.2 4.4 2.1 70 2.1 NE 6 7 3 4 1018.0 1018.2 0.0
24/03:00am 7.6 4.9 2.5 70 2.1 NE 6 7 3 4 1018.2 1018.4 0.0
24/02:30am 8.1 5.3 3.0 70 2.2 NNE 7 7 4 4 1018.1 1018.3 0.0
24/02:00am 8.0 5.7 2.7 69 2.2 N 4 7 2 4 1018.5 1018.7 0.0
24/01:30am 8.1 6.5 2.4 67 2.4 CALM 0 0 0 0 1018.4 1018.6 0.0
24/01:00am 7.8 5.8 2.1 67 2.4 NNE 2 6 1 3 1018.6 1018.8 0.0
24/12:30am 8.4 5.5 2.6 67 2.5 NE 7 9 4 5 1018.7 1018.9 0.0
24/12:00am 8.8 6.9 2.6 65 2.6 NE 2 9 1 5 1019.0 1019.2 0.0
 
Date/Time
EST
Temp
°C
App
Temp
°C
Dew
Point
°C
Rel
Hum
%
Delta-T
°C
Wind Press
QNH
hPa
Press
MSL
hPa
Rain since
9am
mm
Dir  Spd
km/h
Gust
km/h
Spd
kts
Gust
kts
23/11:30pm 8.9 7.0 2.7 65 2.7 NE 2 6 1 3 1019.2 1019.4 0.0
23/11:00pm 9.3 6.7 3.1 65 2.7 NNE 6 7 3 4 1019.3 1019.5 0.0
23/10:30pm 8.9 7.3 2.5 64 2.7 CALM 0 0 0 0 1019.6 1019.7 0.0
23/10:00pm 8.8 6.9 2.6 65 2.6 NNE 2 6 1 3 1019.3 1019.5 0.0
23/09:30pm 8.7 6.3 2.1 63 2.8 NNE 4 7 2 4 1019.4 1019.6 0.0
23/09:00pm 8.8 6.0 1.9 62 2.9 NNE 6 9 3 5 1019.2 1019.4 0.0
23/08:30pm 8.6 6.9 1.7 62 2.9 CALM 0 0 0 0 1019.7 1019.8 0.0
23/08:00pm 9.1 7.3 1.5 59 3.2 CALM 0 6 0 3 1019.4 1019.6 0.0
23/07:30pm 9.4 7.6 1.3 57 3.4 CALM 0 0 0 0 1019.1 1019.3 0.0
23/07:00pm 9.9 7.7 1.0 54 3.7 NNW 2 6 1 3 1019.2 1019.4 0.0
23/06:30pm 10.5 8.6 0.8 51 4.0 CALM 0 2 0 1 1018.9 1019.1 0.0
23/06:00pm 13.7 11.6 1.7 44 5.2 WNW 2 7 1 4 1018.9 1019.1 0.0
23/05:30pm 15.8 12.9 1.2 37 6.4 W 6 7 3 4 1018.7 1018.9 0.0
23/05:00pm 17.5 14.5 1.9 35 7.1 WSW 7 9 4 5 1018.7 1018.9 0.0
23/04:30pm 17.7 13.4 1.2 33 7.4 W 13 17 7 9 1018.6 1018.8 0.0
23/04:00pm 18.5 14.0 1.9 33 7.6 W 15 20 8 11 1018.7 1018.9 0.0
23/03:30pm 18.4 13.8 1.4 32 7.7 W 15 19 8 10 1018.6 1018.8 0.0
23/03:00pm 18.6 13.2 1.2 31 7.9 W 19 26 10 14 1018.9 1019.1 0.0
23/02:30pm 19.1 13.7 1.1 30 8.2 W 19 30 10 16 1018.9 1019.1 0.0
23/02:00pm 19.3 13.9 2.2 32 7.9 WSW 20 32 11 17 1019.1 1019.3 0.0
23/01:46pm 19.3 14.5 2.6 33 7.8 W 17 26 9 14 1019.2 1019.4 0.0
23/01:34pm 19.2 14.5 3.0 34 7.6 WNW 17 24 9 13 1019.3 1019.5 0.0
23/01:32pm 19.0 14.3 3.2 35 7.5 WNW 17 24 9 13 1019.3 1019.5 0.0
23/01:30pm 18.5 13.3 2.4 34 7.5 WNW 19 26 10 14 1019.3 1019.5 0.0
23/01:16pm 18.6 13.7 2.0 33 7.6 WNW 17 28 9 15 1019.2 1019.4 0.0
23/01:00pm 18.4 13.5 1.9 33 7.5 WNW 17 26 9 14 1019.4 1019.6 0.0
23/12:56pm 18.4 13.9 1.9 33 7.6 WNW 15 26 8 14 1019.6 1019.7 0.0
23/12:42pm 17.7 12.3 1.2 33 7.4 WNW 19 24 10 13 1020.1 1020.2 0.0
23/12:41pm 17.8 12.4 1.3 33 7.4 WNW 19 24 10 13 1020.1 1020.2 0.0
23/12:30pm 17.4 12.8 1.4 34 7.2 WNW 15 22 8 12 1020.3 1020.4 0.0
23/12:17pm 17.5 12.5 1.5 34 7.2 WNW 17 26 9 14 1020.5 1020.6 0.0
23/12:00pm 16.9 11.8 0.5 33 7.2 WNW 17 24 9 13 1020.6 1020.7 0.0
23/11:30am 16.9 12.6 1.0 34 7.1 WNW 13 19 7 10 1020.8 1020.9 0.0
23/11:00am 14.7 10.3 0.5 38 6.1 NW 13 17 7 9 1021.8 1022.0 0.0
23/10:30am 14.3 9.6 0.6 39 5.9 NW 15 19 8 10 1022.3 1022.5 0.0

Other Formats:

Comma delimited format used in spreadsheet applications
http://www.bom.gov.au/fwo/IDN60801/IDN60801.94710.axf

JavaScript Object Notation format (JSON) in row-major order
http://www.bom.gov.au/fwo/IDN60801/IDN60801.94710.json